Time,TemperatureF,DewpointF,PressureIn,WindDirection,WindDirectionDegrees,WindSpeedMPH,WindSpeedGustMPH,Humidity,HourlyPrecipIn,Conditions,Clouds,dailyrainin,SoftwareType,DateUTC
2013-10-26 00:13:00,40.0,-99.9,-100.00,South,169,1.0,2.0,-999,0.00,,,0.00,,2013-10-26 05:13:00,
2013-10-26 00:23:00,40.0,-99.9,-100.00,South,169,1.0,2.0,-999,0.00,,,0.00,,2013-10-26 05:23:00,
2013-10-26 00:43:00,41.0,-99.9,-100.00,SSE,165,1.0,2.0,-999,0.00,,,0.00,,2013-10-26 05:43:00,
2013-10-26 00:52:00,41.0,-99.9,-100.00,SSE,165,1.0,2.0,-999,0.00,,,0.00,,2013-10-26 05:52:00,
2013-10-26 01:12:00,40.0,-99.9,-100.00,SSE,164,2.0,2.0,-999,0.00,,,0.00,,2013-10-26 06:12:00,
2013-10-26 01:22:00,40.0,-99.9,-100.00,SSE,164,2.0,2.0,-999,0.00,,,0.00,,2013-10-26 06:22:00,
2013-10-26 01:30:00,42.0,-99.9,-100.00,South,181,2.0,4.0,-999,0.00,,,0.00,,2013-10-26 06:30:00,
2013-10-26 01:42:00,40.0,-99.9,-100.00,South,170,1.0,3.0,-999,0.00,,,0.00,,2013-10-26 06:42:00,
2013-10-26 01:52:00,40.0,-99.9,-100.00,South,170,1.0,3.0,-999,0.00,,,0.00,,2013-10-26 06:52:00,
2013-10-26 02:12:00,42.0,-99.9,-100.00,South,181,2.0,4.0,-999,0.00,,,0.00,,2013-10-26 07:12:00,
2013-10-26 02:22:00,42.0,-99.9,-100.00,South,181,2.0,4.0,-999,0.00,,,0.00,,2013-10-26 07:22:00,
2013-10-26 03:12:00,44.0,-99.9,-100.00,South,183,3.0,4.0,-999,0.00,,,0.00,,2013-10-26 08:12:00,
2013-10-26 03:22:00,44.0,-99.9,-100.00,South,183,3.0,4.0,-999,0.00,,,0.00,,2013-10-26 08:22:00,
2013-10-26 03:42:00,45.0,-99.9,-100.00,SSW,202,4.0,7.0,-999,0.00,,,0.00,,2013-10-26 08:42:00,
2013-10-26 03:52:00,45.0,-99.9,-100.00,SSW,202,4.0,7.0,-999,0.00,,,0.00,,2013-10-26 08:52:00,
2013-10-26 04:11:00,47.0,-99.9,-100.00,SSW,205,5.0,7.0,-999,0.00,,,0.00,,2013-10-26 09:11:00,
2013-10-26 04:22:00,47.0,-99.9,-100.00,SSW,205,5.0,7.0,-999,0.00,,,0.00,,2013-10-26 09:22:00,
2013-10-26 04:43:00,48.0,-99.9,-100.00,SW,221,6.0,13.0,-999,0.00,,,0.00,,2013-10-26 09:43:00,
2013-10-26 04:54:00,48.0,-99.9,-100.00,SW,221,6.0,13.0,-999,0.00,,,0.00,,2013-10-26 09:54:00,
2013-10-26 05:13:00,48.0,-99.9,-100.00,SSW,212,4.0,6.0,-999,0.00,,,0.00,,2013-10-26 10:13:00,
2013-10-26 05:23:00,48.0,-99.9,-100.00,SSW,212,4.0,6.0,-999,0.00,,,0.00,,2013-10-26 10:23:00,
2013-10-26 05:42:00,47.0,-99.9,-100.00,SSW,202,5.0,8.0,-999,0.00,,,0.00,,2013-10-26 10:42:00,
2013-10-26 05:53:00,47.0,-99.9,-100.00,SSW,202,5.0,8.0,-999,0.00,,,0.00,,2013-10-26 10:53:00,
2013-10-26 06:12:00,46.0,-99.9,-100.00,SSW,204,4.0,8.0,-999,0.00,,,0.00,,2013-10-26 11:12:00,
2013-10-26 06:22:00,46.0,-99.9,-100.00,SSW,204,4.0,8.0,-999,0.00,,,0.00,,2013-10-26 11:22:00,
2013-10-26 06:42:00,46.0,-99.9,-100.00,SSW,202,6.0,8.0,-999,0.00,,,0.00,,2013-10-26 11:42:00,
2013-10-26 06:52:00,46.0,-99.9,-100.00,SSW,202,6.0,8.0,-999,0.00,,,0.00,,2013-10-26 11:52:00,
2013-10-26 07:12:00,45.0,-99.9,-100.00,SSW,200,4.0,5.0,-999,0.00,,,0.00,,2013-10-26 12:12:00,
2013-10-26 07:22:00,45.0,-99.9,-100.00,SSW,200,4.0,5.0,-999,0.00,,,0.00,,2013-10-26 12:22:00,
2013-10-26 07:42:00,45.0,-99.9,-100.00,SW,214,5.0,8.0,-999,0.00,,,0.00,,2013-10-26 12:42:00,
2013-10-26 07:52:00,45.0,-99.9,-100.00,SW,214,5.0,8.0,-999,0.00,,,0.00,,2013-10-26 12:52:00,
2013-10-26 08:12:00,46.0,-99.9,-100.00,SW,224,5.0,10.0,-999,0.00,,,0.00,,2013-10-26 13:12:00,
2013-10-26 08:22:00,46.0,-99.9,-100.00,SW,224,5.0,10.0,-999,0.00,,,0.00,,2013-10-26 13:22:00,
2013-10-26 08:42:00,46.0,-99.9,-100.00,WSW,242,9.0,14.0,-999,0.00,,,0.00,,2013-10-26 13:42:00,
2013-10-26 08:52:00,46.0,-99.9,-100.00,WSW,242,9.0,14.0,-999,0.00,,,0.00,,2013-10-26 13:52:00,
2013-10-26 09:12:00,46.0,-99.9,-100.00,WSW,241,7.0,9.0,-999,0.00,,,0.00,,2013-10-26 14:12:00,
2013-10-26 09:22:00,46.0,-99.9,-100.00,WSW,241,7.0,9.0,-999,0.00,,,0.00,,2013-10-26 14:22:00,
2013-10-26 09:42:00,48.0,-99.9,-100.00,WSW,247,4.0,11.0,-999,0.00,,,0.00,,2013-10-26 14:42:00,
2013-10-26 09:52:00,48.0,-99.9,-100.00,WSW,247,4.0,11.0,-999,0.00,,,0.00,,2013-10-26 14:52:00,
2013-10-26 10:12:00,49.0,-99.9,-100.00,West,277,4.0,10.0,-999,0.00,,,0.00,,2013-10-26 15:12:00,
2013-10-26 10:23:00,49.0,-99.9,-100.00,West,277,4.0,10.0,-999,0.00,,,0.00,,2013-10-26 15:23:00,
2013-10-26 10:44:00,51.0,-99.9,-100.00,West,281,6.0,10.0,-999,0.00,,,0.00,,2013-10-26 15:44:00,
2013-10-26 10:55:00,51.0,-99.9,-100.00,West,281,6.0,10.0,-999,0.00,,,0.00,,2013-10-26 15:55:00,
2013-10-26 11:14:00,52.0,-99.9,-100.00,NW,314,11.0,15.0,-999,0.00,,,0.00,,2013-10-26 16:14:00,
2013-10-26 11:24:00,52.0,-99.9,-100.00,NW,314,11.0,15.0,-999,0.00,,,0.00,,2013-10-26 16:24:00,
2013-10-26 11:44:00,52.0,-99.9,-100.00,WNW,294,9.0,15.0,-999,0.00,,,0.00,,2013-10-26 16:44:00,
2013-10-26 12:13:00,54.0,-99.9,-100.00,NNW,329,10.0,14.0,-999,0.00,,,0.00,,2013-10-26 17:13:00,
2013-10-26 12:23:00,54.0,-99.9,-100.00,NNW,329,10.0,14.0,-999,0.00,,,0.00,,2013-10-26 17:23:00,
2013-10-26 12:43:00,55.0,-99.9,-100.00,NW,324,10.0,19.0,-999,0.00,,,0.00,,2013-10-26 17:43:00,
2013-10-26 12:52:00,55.0,-99.9,-100.00,NW,324,10.0,19.0,-999,0.00,,,0.00,,2013-10-26 17:52:00,
2013-10-26 13:12:00,55.0,-99.9,-100.00,NW,320,9.0,16.0,-999,0.00,,,0.00,,2013-10-26 18:12:00,
2013-10-26 13:22:00,55.0,-99.9,-100.00,NW,320,9.0,16.0,-999,0.00,,,0.00,,2013-10-26 18:22:00,
2013-10-26 13:42:00,56.0,-99.9,-100.00,NW,309,13.0,18.0,-999,0.00,,,0.00,,2013-10-26 18:42:00,
2013-10-26 13:52:00,56.0,-99.9,-100.00,NW,309,13.0,18.0,-999,0.00,,,0.00,,2013-10-26 18:52:00,
2013-10-26 14:12:00,56.0,-99.9,-100.00,NNW,334,12.0,23.0,-999,0.00,,,0.00,,2013-10-26 19:12:00,
2013-10-26 14:22:00,56.0,-99.9,-100.00,NNW,334,12.0,23.0,-999,0.00,,,0.00,,2013-10-26 19:22:00,
2013-10-26 14:42:00,56.0,-99.9,-100.00,NW,325,12.0,23.0,-999,0.00,,,0.00,,2013-10-26 19:42:00,
2013-10-26 14:52:00,56.0,-99.9,-100.00,NW,325,12.0,23.0,-999,0.00,,,0.00,,2013-10-26 19:52:00,
2013-10-26 15:12:00,55.0,-99.9,-100.00,NNW,347,11.0,15.0,-999,0.00,,,0.00,,2013-10-26 20:12:00,
2013-10-26 15:22:00,55.0,-99.9,-100.00,NNW,347,11.0,15.0,-999,0.00,,,0.00,,2013-10-26 20:22:00,
2013-10-26 15:30:00,55.0,-99.9,-100.00,NW,325,12.0,19.0,-999,0.00,,,0.00,,2013-10-26 20:30:00,
2013-10-26 15:43:00,56.0,-99.9,-100.00,NNW,332,10.0,12.0,-999,0.00,,,0.00,,2013-10-26 20:43:00,
2013-10-26 16:11:00,55.0,-99.9,-100.00,NW,325,12.0,19.0,-999,0.00,,,0.00,,2013-10-26 21:11:00,
2013-10-26 16:22:00,55.0,-99.9,-100.00,NW,325,12.0,19.0,-999,0.00,,,0.00,,2013-10-26 21:22:00,
2013-10-26 17:14:00,54.0,-99.9,-100.00,North,359,10.0,14.0,-999,0.00,,,0.00,,2013-10-26 22:14:00,
2013-10-26 17:24:00,54.0,-99.9,-100.00,North,359,10.0,14.0,-999,0.00,,,0.00,,2013-10-26 22:24:00,
2013-10-26 17:44:00,54.0,-99.9,-100.00,NNW,337,8.0,11.0,-999,0.00,,,0.00,,2013-10-26 22:44:00,
2013-10-26 17:54:00,54.0,-99.9,-100.00,NNW,337,8.0,11.0,-999,0.00,,,0.00,,2013-10-26 22:54:00,
2013-10-26 18:12:00,54.0,-99.9,-100.00,North,354,10.0,12.0,-999,0.00,,,0.00,,2013-10-26 23:12:00,
2013-10-26 18:22:00,54.0,-99.9,-100.00,North,354,10.0,12.0,-999,0.00,,,0.00,,2013-10-26 23:22:00,
2013-10-26 18:42:00,52.0,-99.9,-100.00,North,351,7.0,9.0,-999,0.00,,,0.00,,2013-10-26 23:42:00,
2013-10-26 18:52:00,52.0,-99.9,-100.00,North,351,7.0,9.0,-999,0.00,,,0.00,,2013-10-26 23:52:00,
2013-10-26 19:12:00,51.0,-99.9,-100.00,NNW,334,5.0,9.0,-999,0.00,,,0.00,,2013-10-27 00:12:00,
2013-10-26 19:22:00,51.0,-99.9,-100.00,NNW,334,5.0,9.0,-999,0.00,,,0.00,,2013-10-27 00:22:00,
2013-10-26 19:42:00,49.0,-99.9,-100.00,NW,316,3.0,5.0,-999,0.00,,,0.00,,2013-10-27 00:42:00,
2013-10-26 19:52:00,49.0,-99.9,-100.00,NW,316,3.0,5.0,-999,0.00,,,0.00,,2013-10-27 00:52:00,
2013-10-26 20:12:00,48.0,-99.9,-100.00,NW,317,2.0,4.0,-999,0.00,,,0.00,,2013-10-27 01:12:00,
2013-10-26 20:23:00,48.0,-99.9,-100.00,NW,317,2.0,4.0,-999,0.00,,,0.00,,2013-10-27 01:23:00,
2013-10-26 20:42:00,46.0,-99.9,-100.00,NW,321,3.0,4.0,-999,0.00,,,0.00,,2013-10-27 01:42:00,
2013-10-26 20:52:00,46.0,-99.9,-100.00,NW,321,3.0,4.0,-999,0.00,,,0.00,,2013-10-27 01:52:00,
2013-10-26 21:12:00,45.0,-99.9,-100.00,NW,319,1.0,3.0,-999,0.00,,,0.00,,2013-10-27 02:12:00,
2013-10-26 21:22:00,45.0,-99.9,-100.00,NW,319,1.0,3.0,-999,0.00,,,0.00,,2013-10-27 02:22:00,
2013-10-26 21:42:00,43.0,-99.9,-100.00,SSW,194,0.0,1.0,-999,0.00,,,0.00,,2013-10-27 02:42:00,
2013-10-26 21:52:00,43.0,-99.9,-100.00,SSW,194,0.0,1.0,-999,0.00,,,0.00,,2013-10-27 02:52:00,
2013-10-26 22:12:00,40.0,-99.9,-100.00,South,171,0.0,1.0,-999,0.00,,,0.00,,2013-10-27 03:12:00,
2013-10-26 22:22:00,40.0,-99.9,-100.00,South,171,0.0,1.0,-999,0.00,,,0.00,,2013-10-27 03:22:00,
2013-10-26 22:45:00,41.0,-99.9,-100.00,SE,140,0.0,1.0,-999,0.00,,,0.00,,2013-10-27 03:45:00,
2013-10-26 22:55:00,41.0,-99.9,-100.00,SE,140,0.0,1.0,-999,0.00,,,0.00,,2013-10-27 03:55:00,
2013-10-26 23:03:00,-999.0,-99.9,-100.00,SSW,205,0.0,1.0,-999,-99.99,,,-99.99,,2013-10-27 04:03:00,
2013-10-26 23:14:00,40.0,-99.9,-100.00,SSW,205,0.0,1.0,-999,0.00,,,0.00,,2013-10-27 04:14:00,
2013-10-26 23:24:00,40.0,-99.9,-100.00,SSW,205,0.0,1.0,-999,0.00,,,0.00,,2013-10-27 04:24:00,
2013-10-26 23:44:00,43.0,-99.9,-100.00,NW,319,2.0,3.0,-999,0.00,,,0.00,,2013-10-27 04:44:00,
2013-10-26 23:54:00,43.0,-99.9,-100.00,NW,319,2.0,3.0,-999,0.00,,,0.00,,2013-10-27 04:54:00,